Terminal Aerodrome Forecast
Issued by NWS

Home | Current Version | Previous Version | Graphics & Text | Print | Product List | Glossary On
Versions: 1 2 3 4 5 6 7 8 9 10 11 12 13
000
FTUS43 KMPX 110500
TAFAXN
TAF
KAXN 110530Z 1106/1206 17011KT P6SM VCSH SCT050 OVC080
      TEMPO 1106/1108 4SM TSRA OVC035CB
     FM110900 18013KT P6SM -SHRA BKN035 OVC070
     FM111400 19012KT P6SM VCSH BKN030 OVC060
     FM111800 20009KT P6SM SCT035 BKN060=

USA.gov is the U.S. government's official web portal to all federal, state and local government web resources and services.